createdAt,value
2022-08-07T00:00:05.680Z,16.09
2022-08-07T00:01:12.602Z,16.08
2022-08-07T00:02:36.810Z,16.07
2022-08-07T00:03:10.896Z,16.06
2022-08-07T00:04:15.517Z,16.05
2022-08-07T00:05:14.503Z,16.05
2022-08-07T00:06:16.157Z,16.04
2022-08-07T00:07:17.809Z,16.03
2022-08-07T00:08:19.562Z,16.02
2022-08-07T00:09:22.543Z,16.01
2022-08-07T00:10:27.116Z,16.01
2022-08-07T00:11:29.920Z,15.99
2022-08-07T00:12:26.609Z,15.99
2022-08-07T00:13:28.436Z,15.97
2022-08-07T00:14:30.966Z,15.96
2022-08-07T00:15:38.562Z,15.96
2022-08-07T00:16:33.548Z,15.95
2022-08-07T00:17:35.895Z,15.94
2022-08-07T00:18:36.890Z,15.94
2022-08-07T00:20:01.019Z,15.92
2022-08-07T00:20:40.531Z,15.91
2022-08-07T00:21:56.167Z,15.91
2022-08-07T00:22:43.967Z,15.91
2022-08-07T00:23:45.580Z,15.9
2022-08-07T00:24:47.305Z,15.89
2022-08-07T00:25:58.997Z,15.88
2022-08-07T00:27:06.444Z,15.87
2022-08-07T00:27:56.591Z,15.87
2022-08-07T00:28:55.670Z,15.87
2022-08-07T00:29:56.150Z,15.86
2022-08-07T00:30:57.795Z,15.85
2022-08-07T00:31:59.444Z,15.85
2022-08-07T00:33:02.236Z,15.84
2022-08-07T00:34:03.068Z,15.83
2022-08-07T00:35:04.668Z,15.82
2022-08-07T00:36:06.414Z,15.83
2022-08-07T00:37:08.124Z,15.82
2022-08-07T00:38:09.859Z,15.82
2022-08-07T00:39:12.855Z,15.8
2022-08-07T00:40:14.047Z,15.79
2022-08-07T00:41:15.321Z,15.79
2022-08-07T00:42:16.797Z,15.79
2022-08-07T00:44:01.374Z,15.78
2022-08-07T00:44:20.399Z,15.78
2022-08-07T00:45:22.058Z,15.77
2022-08-07T00:46:23.909Z,15.77
2022-08-07T00:48:08.202Z,15.76
2022-08-07T00:48:32.051Z,15.76
2022-08-07T00:50:19.951Z,15.76
2022-08-07T00:50:46.273Z,15.75
2022-08-07T00:51:57.097Z,15.75
2022-08-07T00:52:34.144Z,15.74
2022-08-07T00:53:39.101Z,15.73
2022-08-07T00:54:37.618Z,15.74
2022-08-07T00:56:03.258Z,15.72
2022-08-07T00:56:41.085Z,15.71
2022-08-07T00:57:44.509Z,15.71
2022-08-07T00:58:47.057Z,15.7
2022-08-07T00:59:46.127Z,15.68
2022-08-07T01:00:54.182Z,15.66
2022-08-07T01:01:49.680Z,15.65
2022-08-07T01:02:51.336Z,15.65
2022-08-07T01:03:56.121Z,15.63
2022-08-07T01:04:58.266Z,15.63
2022-08-07T01:05:56.674Z,15.61
2022-08-07T01:06:58.425Z,15.6
2022-08-07T01:08:00.337Z,15.59
2022-08-07T01:09:02.829Z,15.58
2022-08-07T01:10:06.280Z,15.57
2022-08-07T01:11:22.927Z,15.56
2022-08-07T01:12:28.860Z,15.54
2022-08-07T01:13:08.676Z,15.53
2022-08-07T01:14:10.504Z,15.52
2022-08-07T01:15:17.001Z,15.51
2022-08-07T01:16:13.879Z,15.5
2022-08-07T01:17:15.648Z,15.49
2022-08-07T01:18:17.854Z,15.47
2022-08-07T01:19:19.702Z,15.47
2022-08-07T01:20:20.821Z,15.46
2022-08-07T01:21:24.397Z,15.45
2022-08-07T01:22:29.136Z,15.43
2022-08-07T01:23:34.696Z,15.43
2022-08-07T01:24:27.815Z,15.42
2022-08-07T01:25:40.476Z,15.4
2022-08-07T01:26:31.363Z,15.39
2022-08-07T01:27:33.056Z,15.37
2022-08-07T01:28:34.754Z,15.36
2022-08-07T01:29:36.508Z,15.36
2022-08-07T01:30:38.252Z,15.34
2022-08-07T01:31:42.499Z,15.33
2022-08-07T01:32:41.642Z,15.33
2022-08-07T01:33:53.718Z,15.32
2022-08-07T01:34:47.304Z,15.31
2022-08-07T01:35:54.283Z,15.31
2022-08-07T01:36:52.975Z,15.3
2022-08-07T01:37:50.458Z,15.29
2022-08-07T01:38:52.102Z,15.3
2022-08-07T01:39:53.932Z,15.29
2022-08-07T01:40:55.654Z,15.3
2022-08-07T01:42:07.519Z,15.29
2022-08-07T01:42:59.301Z,15.3
2022-08-07T01:44:01.713Z,15.3
2022-08-07T01:45:02.435Z,15.3
2022-08-07T01:46:08.087Z,15.31
2022-08-07T01:47:14.360Z,15.31
2022-08-07T01:48:29.475Z,15.31
2022-08-07T01:49:09.506Z,15.3
2022-08-07T01:50:11.169Z,15.32
2022-08-07T01:51:58.745Z,15.32
2022-08-07T01:52:15.356Z,15.33
2022-08-07T01:53:21.630Z,15.33
2022-08-07T01:54:22.010Z,15.33
2022-08-07T01:55:22.491Z,15.33
2022-08-07T01:56:21.667Z,15.34
2022-08-07T01:57:24.838Z,15.34
2022-08-07T01:58:27.238Z,15.35
2022-08-07T01:59:30.828Z,15.34
2022-08-07T02:00:29.155Z,15.35
2022-08-07T02:02:00.161Z,15.34
2022-08-07T02:02:32.603Z,15.34
2022-08-07T02:03:42.744Z,15.35
2022-08-07T02:04:35.419Z,15.34
2022-08-07T02:05:48.365Z,15.34
2022-08-07T02:06:38.918Z,15.34
2022-08-07T02:07:49.985Z,15.34
2022-08-07T02:08:42.612Z,15.34
2022-08-07T02:09:53.205Z,15.33
2022-08-07T02:10:48.659Z,15.33
2022-08-07T02:12:05.018Z,15.33
2022-08-07T02:12:50.167Z,15.33
2022-08-07T02:13:57.629Z,15.33
2022-08-07T02:14:52.818Z,15.33
2022-08-07T02:15:54.542Z,15.33
2022-08-07T02:16:56.352Z,15.34
2022-08-07T02:17:58.166Z,15.34
2022-08-07T02:18:59.904Z,15.34
2022-08-07T02:20:06.941Z,15.34
2022-08-07T02:21:06.921Z,15.35
2022-08-07T02:22:07.838Z,15.35
2022-08-07T02:23:06.644Z,15.34
2022-08-07T02:24:08.354Z,15.35
2022-08-07T02:25:13.804Z,15.35
2022-08-07T02:26:32.446Z,15.34
2022-08-07T02:27:13.565Z,15.35
2022-08-07T02:28:15.426Z,15.35
2022-08-07T02:29:17.034Z,15.35
2022-08-07T02:30:18.796Z,15.35
2022-08-07T02:31:28.846Z,15.35
2022-08-07T02:32:23.554Z,15.35
2022-08-07T02:33:24.339Z,15.34
2022-08-07T02:34:25.723Z,15.33
2022-08-07T02:36:30.964Z,15.34
2022-08-07T02:36:32.937Z,15.33
2022-08-07T02:37:34.086Z,15.32
2022-08-07T02:38:32.664Z,15.32
2022-08-07T02:39:42.605Z,15.31
2022-08-07T02:40:36.612Z,15.29
2022-08-07T02:41:38.187Z,15.29
2022-08-07T02:42:39.597Z,15.27
2022-08-07T02:43:41.386Z,15.26
2022-08-07T02:44:47.917Z,15.25
2022-08-07T02:46:00.764Z,15.24
2022-08-07T02:46:52.529Z,15.23
2022-08-07T02:47:49.394Z,15.21
2022-08-07T02:48:54.998Z,15.2
2022-08-07T02:49:57.498Z,15.18
2022-08-07T02:50:53.804Z,15.17
2022-08-07T02:51:55.190Z,15.15
2022-08-07T02:53:00.857Z,15.14
2022-08-07T02:53:58.671Z,15.13
2022-08-07T02:55:00.398Z,15.11
2022-08-07T02:56:05.277Z,15.09
2022-08-07T02:57:03.868Z,15.08
2022-08-07T02:58:05.722Z,15.07
2022-08-07T02:59:07.462Z,15.05
2022-08-07T03:00:10.914Z,15.04
2022-08-07T03:01:18.600Z,15.02
2022-08-07T03:02:12.591Z,15.01
2022-08-07T03:03:14.283Z,14.99
2022-08-07T03:04:16.023Z,14.99
2022-08-07T03:05:20.471Z,14.99
2022-08-07T03:06:32.703Z,14.98
2022-08-07T03:07:25.682Z,14.98
2022-08-07T03:08:27.007Z,14.97
2022-08-07T03:09:42.216Z,14.97
2022-08-07T03:10:26.534Z,14.96
2022-08-07T03:11:28.401Z,14.96
2022-08-07T03:12:30.907Z,14.96
2022-08-07T03:13:38.681Z,14.95
2022-08-07T03:14:33.356Z,14.95
2022-08-07T03:15:55.512Z,14.93
2022-08-07T03:16:38.457Z,14.93
2022-08-07T03:17:53.762Z,14.93
2022-08-07T03:18:40.356Z,14.92
2022-08-07T03:19:42.126Z,14.91
2022-08-07T03:20:43.821Z,14.9
2022-08-07T03:21:50.878Z,14.89
2022-08-07T03:22:50.016Z,14.88
2022-08-07T03:24:18.888Z,14.87
2022-08-07T03:24:50.713Z,14.86
2022-08-07T03:25:58.384Z,14.85
2022-08-07T03:26:58.859Z,14.84
2022-08-07T03:28:09.249Z,14.82
2022-08-07T03:28:57.641Z,14.81
2022-08-07T03:29:59.344Z,14.81
2022-08-07T03:31:01.229Z,14.79
2022-08-07T03:32:02.842Z,14.78
2022-08-07T03:33:04.621Z,14.76
2022-08-07T03:34:06.426Z,14.74
2022-08-07T03:35:18.058Z,14.73
2022-08-07T03:36:09.754Z,14.71
2022-08-07T03:37:12.332Z,14.7
2022-08-07T03:38:13.474Z,14.68
2022-08-07T03:39:15.177Z,14.68
2022-08-07T03:40:17.173Z,14.67
2022-08-07T03:41:18.516Z,14.66
2022-08-07T03:42:20.189Z,14.66
2022-08-07T03:43:22.035Z,14.65
2022-08-07T03:44:34.417Z,14.64
2022-08-07T03:45:30.842Z,14.63
2022-08-07T03:46:27.222Z,14.61
2022-08-07T03:47:29.587Z,14.61
2022-08-07T03:48:30.568Z,14.59
2022-08-07T03:49:32.327Z,14.58
2022-08-07T03:50:34.039Z,14.57
2022-08-07T03:51:47.264Z,14.57
2022-08-07T03:52:37.661Z,14.56
2022-08-07T03:54:01.744Z,14.55
2022-08-07T03:54:54.225Z,14.55
2022-08-07T03:55:57.692Z,14.54
2022-08-07T03:57:03.309Z,14.53
2022-08-07T03:58:34.820Z,14.53
2022-08-07T03:59:07.914Z,14.52
2022-08-07T04:00:01.877Z,14.51
2022-08-07T04:00:54.903Z,14.51
2022-08-07T04:01:53.285Z,14.51
2022-08-07T04:02:56.683Z,14.51
2022-08-07T04:03:56.588Z,14.5
2022-08-07T04:04:58.391Z,14.5
2022-08-07T04:06:00.080Z,14.51
2022-08-07T04:07:01.779Z,14.51
2022-08-07T04:08:03.536Z,14.5
2022-08-07T04:09:05.263Z,14.51
2022-08-07T04:10:07.120Z,14.51
2022-08-07T04:12:24.067Z,14.51
2022-08-07T04:12:28.508Z,14.51
2022-08-07T04:13:15.403Z,14.51
2022-08-07T04:14:38.085Z,14.5
2022-08-07T04:15:15.673Z,14.49
2022-08-07T04:16:30.066Z,14.49
2022-08-07T04:17:21.001Z,14.48
2022-08-07T04:18:57.301Z,14.48
2022-08-07T04:19:22.669Z,14.47
2022-08-07T04:20:24.481Z,14.47
2022-08-07T04:21:26.145Z,14.47
2022-08-07T04:22:28.824Z,14.47
2022-08-07T04:23:43.920Z,14.46
2022-08-07T04:24:34.005Z,14.45
2022-08-07T04:25:35.867Z,14.45
2022-08-07T04:26:34.761Z,14.46
2022-08-07T04:27:39.342Z,14.45
2022-08-07T04:28:38.411Z,14.45
2022-08-07T04:29:48.764Z,14.45
2022-08-07T04:30:55.142Z,14.45
2022-08-07T04:32:03.302Z,14.45
2022-08-07T04:32:47.770Z,14.46
2022-08-07T04:33:46.887Z,14.46
2022-08-07T04:34:48.673Z,14.46
2022-08-07T04:35:51.351Z,14.46
2022-08-07T04:36:52.226Z,14.46
2022-08-07T04:38:03.922Z,14.46
2022-08-07T04:38:55.699Z,14.47
2022-08-07T04:39:57.419Z,14.47
2022-08-07T04:40:59.146Z,14.48
2022-08-07T04:42:00.840Z,14.49
2022-08-07T04:43:03.501Z,14.5
2022-08-07T04:44:13.090Z,14.5
2022-08-07T04:45:08.116Z,14.52
2022-08-07T04:46:07.707Z,14.52
2022-08-07T04:47:09.530Z,14.54
2022-08-07T04:48:11.496Z,14.55
2022-08-07T04:49:17.572Z,14.57
2022-08-07T04:50:14.754Z,14.57
2022-08-07T04:51:16.377Z,14.59
2022-08-07T04:52:18.360Z,14.6
2022-08-07T04:53:40.010Z,14.62
2022-08-07T04:54:22.634Z,14.63
2022-08-07T04:58:07.727Z,14.64
2022-08-07T04:58:09.383Z,14.66
2022-08-07T04:58:10.233Z,14.68
2022-08-07T04:58:48.788Z,14.7
2022-08-07T05:00:11.170Z,14.71
2022-08-07T05:00:32.593Z,14.73
2022-08-07T05:01:33.780Z,14.75
2022-08-07T05:02:35.517Z,14.76
2022-08-07T05:03:59.677Z,14.78
2022-08-07T05:04:47.243Z,14.8
2022-08-07T05:05:51.811Z,14.81
2022-08-07T05:06:43.338Z,14.83
2022-08-07T05:07:48.281Z,14.85
2022-08-07T05:09:00.814Z,14.87
2022-08-07T05:09:47.652Z,14.87
2022-08-07T05:10:49.329Z,14.9
2022-08-07T05:11:56.800Z,14.91
2022-08-07T05:12:55.248Z,14.93
2022-08-07T05:14:54.218Z,14.95
2022-08-07T05:15:04.433Z,14.97
2022-08-07T05:15:58.110Z,14.98
2022-08-07T05:16:59.837Z,15
2022-08-07T05:18:01.760Z,15.02
2022-08-07T05:19:03.197Z,15.04
2022-08-07T05:20:09.659Z,15.06
2022-08-07T05:21:06.664Z,15.09
2022-08-07T05:22:08.452Z,15.1
2022-08-07T05:23:15.371Z,15.12
2022-08-07T05:24:11.870Z,15.14
2022-08-07T05:25:35.692Z,15.17
2022-08-07T05:26:23.685Z,15.19
2022-08-07T05:28:02.702Z,15.22
2022-08-07T05:28:23.034Z,15.25
2022-08-07T05:29:20.559Z,15.27
2022-08-07T05:30:30.248Z,15.3
2022-08-07T05:31:24.005Z,15.32
2022-08-07T05:32:25.808Z,15.36
2022-08-07T05:33:27.641Z,15.39
2022-08-07T05:34:29.280Z,15.42
2022-08-07T05:35:33.449Z,15.45
2022-08-07T05:36:35.374Z,15.47
2022-08-07T05:37:37.764Z,15.51
2022-08-07T05:38:59.873Z,15.54
2022-08-07T05:40:05.731Z,15.58
2022-08-07T05:40:50.408Z,15.61
2022-08-07T05:42:00.266Z,15.65
2022-08-07T05:42:43.086Z,15.69
2022-08-07T05:44:08.580Z,15.72
2022-08-07T05:45:04.287Z,15.76
2022-08-07T05:45:48.574Z,15.8
2022-08-07T05:46:51.104Z,15.84
2022-08-07T05:48:01.862Z,15.89
2022-08-07T05:48:59.077Z,15.92
2022-08-07T05:49:55.361Z,15.96
2022-08-07T05:50:57.040Z,16.01
2022-08-07T05:51:58.830Z,16.06
2022-08-07T05:53:00.593Z,16.11
2022-08-07T05:54:13.097Z,16.14
2022-08-07T05:55:10.497Z,16.18
2022-08-07T05:56:12.420Z,16.23
2022-08-07T05:57:07.494Z,16.28
2022-08-07T05:58:09.164Z,16.32
2022-08-07T05:59:10.980Z,16.37
2022-08-07T06:00:16.273Z,16.43
2022-08-07T06:01:14.337Z,16.48
2022-08-07T06:02:21.505Z,16.52
2022-08-07T06:03:17.773Z,16.58
2022-08-07T06:04:19.561Z,16.62
2022-08-07T06:05:25.947Z,16.66
2022-08-07T06:06:23.009Z,16.71
2022-08-07T06:08:14.237Z,16.77
2022-08-07T06:08:31.290Z,16.81
2022-08-07T06:09:44.961Z,16.85
2022-08-07T06:10:30.050Z,16.91
2022-08-07T06:11:31.671Z,16.96
2022-08-07T06:12:33.392Z,17.04
2022-08-07T06:14:13.032Z,17.12
2022-08-07T06:14:36.857Z,17.19
2022-08-07T06:15:42.117Z,17.26
2022-08-07T06:16:40.337Z,17.32
2022-08-07T06:17:42.056Z,17.38
2022-08-07T06:18:51.766Z,17.47
2022-08-07T06:19:51.966Z,17.53
2022-08-07T06:20:50.955Z,17.6
2022-08-07T06:22:16.361Z,17.67
2022-08-07T06:23:02.416Z,17.72
2022-08-07T06:24:37.673Z,17.78
2022-08-07T06:24:58.523Z,17.84
2022-08-07T06:25:57.188Z,17.91
2022-08-07T06:26:57.755Z,17.98
2022-08-07T06:28:01.558Z,18.05
2022-08-07T06:29:01.582Z,18.12
2022-08-07T06:30:03.041Z,18.17
2022-08-07T06:31:07.641Z,18.23
2022-08-07T06:32:06.357Z,18.3
2022-08-07T06:33:15.620Z,18.35
2022-08-07T06:34:09.844Z,18.41
2022-08-07T06:35:17.988Z,18.47
2022-08-07T06:36:14.195Z,18.52
2022-08-07T06:37:17.335Z,18.59
2022-08-07T06:38:20.665Z,18.66
2022-08-07T06:40:17.845Z,18.75
2022-08-07T06:40:21.024Z,18.84
2022-08-07T06:41:29.398Z,18.93
2022-08-07T06:42:33.094Z,19.03
2022-08-07T06:43:25.556Z,19.1
2022-08-07T06:44:27.276Z,19.15
2022-08-07T06:45:28.945Z,19.19
2022-08-07T06:46:35.317Z,19.24
2022-08-07T06:47:47.902Z,19.24
2022-08-07T06:48:34.182Z,19.27
2022-08-07T06:49:35.853Z,19.26
2022-08-07T06:50:37.617Z,19.33
2022-08-07T06:51:49.677Z,19.39
2022-08-07T06:52:41.047Z,19.44
2022-08-07T06:54:11.672Z,19.51
2022-08-07T06:55:33.423Z,19.55
2022-08-07T06:55:59.966Z,19.6
2022-08-07T06:56:49.446Z,19.66
2022-08-07T06:57:52.126Z,19.7
2022-08-07T07:00:11.971Z,19.75
2022-08-07T07:00:12.757Z,19.7
2022-08-07T07:00:54.956Z,19.81
2022-08-07T07:01:57.006Z,19.87
2022-08-07T07:03:01.306Z,19.93
2022-08-07T07:04:28.601Z,19.94
2022-08-07T07:05:01.984Z,19.99
2022-08-07T07:06:06.246Z,20.03
2022-08-07T07:07:10.480Z,20.03
2022-08-07T07:08:12.332Z,20.12
2022-08-07T07:09:08.794Z,20.19
2022-08-07T07:10:10.522Z,20.22
2022-08-07T07:11:14.460Z,20.26
2022-08-07T07:12:19.652Z,20.33
2022-08-07T07:13:15.735Z,20.4
2022-08-07T07:14:17.448Z,20.45
2022-08-07T07:15:23.975Z,20.55
2022-08-07T07:16:20.933Z,20.58
2022-08-07T07:17:22.642Z,20.58
2022-08-07T07:18:37.669Z,20.61
2022-08-07T07:19:55.874Z,20.66
2022-08-07T07:20:27.902Z,20.65
2022-08-07T07:21:40.488Z,20.68
2022-08-07T07:22:36.279Z,20.67
2022-08-07T07:24:10.219Z,20.67
2022-08-07T07:24:34.884Z,20.71
2022-08-07T07:26:35.417Z,20.74
2022-08-07T07:26:38.275Z,20.75
2022-08-07T07:27:55.548Z,20.78
2022-08-07T07:28:48.705Z,20.79
2022-08-07T07:30:07.655Z,20.8
2022-08-07T07:30:45.481Z,20.83
2022-08-07T07:31:47.112Z,20.86
2022-08-07T07:32:48.727Z,20.87
2022-08-07T07:33:56.447Z,20.87
2022-08-07T07:34:52.145Z,20.9
2022-08-07T07:36:04.523Z,20.87
2022-08-07T07:36:55.666Z,20.84
2022-08-07T07:38:02.897Z,20.88
2022-08-07T07:38:59.274Z,20.9
2022-08-07T07:40:01.014Z,20.95
2022-08-07T07:41:02.823Z,20.98
2022-08-07T07:42:12.918Z,21.04
2022-08-07T07:43:14.982Z,21.04
2022-08-07T07:44:17.643Z,21.08
2022-08-07T07:45:09.482Z,21.06
2022-08-07T07:46:37.800Z,21.1
2022-08-07T07:47:22.943Z,21.11
2022-08-07T07:48:35.146Z,21.15
2022-08-07T07:50:34.300Z,21.14
2022-08-07T07:50:36.534Z,21.17
2022-08-07T07:51:19.885Z,21.18
2022-08-07T07:52:21.733Z,21.22
2022-08-07T07:53:25.598Z,21.25
2022-08-07T07:54:25.121Z,21.24
2022-08-07T07:55:26.956Z,21.31
2022-08-07T07:56:30.276Z,21.33
2022-08-07T07:57:43.886Z,21.36
2022-08-07T07:58:40.475Z,21.41
2022-08-07T07:59:52.881Z,21.46
2022-08-07T08:00:35.774Z,21.52
2022-08-07T08:02:02.622Z,21.6
2022-08-07T08:02:39.041Z,21.61
2022-08-07T08:04:10.773Z,21.69
2022-08-07T08:04:42.494Z,21.74
2022-08-07T08:05:54.884Z,21.79
2022-08-07T08:06:51.997Z,21.82
2022-08-07T08:07:59.804Z,21.91
2022-08-07T08:08:49.557Z,21.98
2022-08-07T08:09:52.151Z,22.03
2022-08-07T08:10:52.980Z,22.13
2022-08-07T08:12:02.316Z,22.19
2022-08-07T08:12:59.684Z,22.26
2022-08-07T08:13:58.172Z,22.32
2022-08-07T08:14:59.920Z,22.37
2022-08-07T08:16:01.530Z,22.39
2022-08-07T08:17:56.181Z,22.41
2022-08-07T08:18:17.283Z,22.42
2022-08-07T08:19:17.964Z,22.36
2022-08-07T08:20:22.332Z,22.31
2022-08-07T08:21:10.183Z,22.31
2022-08-07T08:22:11.982Z,22.35
2022-08-07T08:23:14.350Z,22.36
2022-08-07T08:24:34.331Z,22.39
2022-08-07T08:25:25.155Z,22.41
2022-08-07T08:26:18.877Z,22.42
2022-08-07T08:27:20.699Z,22.42
2022-08-07T08:28:24.162Z,22.44
2022-08-07T08:29:24.189Z,22.38
2022-08-07T08:30:25.821Z,22.4
2022-08-07T08:31:30.131Z,22.45
2022-08-07T08:32:38.584Z,22.48
2022-08-07T08:33:32.959Z,22.51
2022-08-07T08:34:32.783Z,22.5
2022-08-07T08:35:39.394Z,22.51
2022-08-07T08:36:36.331Z,22.5
2022-08-07T08:37:59.473Z,22.52
2022-08-07T08:38:41.251Z,22.55
2022-08-07T08:39:55.229Z,22.58
2022-08-07T08:40:43.739Z,22.61
2022-08-07T08:41:57.861Z,22.61
2022-08-07T08:42:46.697Z,22.55
2022-08-07T08:43:56.186Z,22.52
2022-08-07T08:44:50.096Z,22.58
2022-08-07T08:45:59.343Z,22.57
2022-08-07T08:46:53.789Z,22.58
2022-08-07T08:47:55.423Z,22.63
2022-08-07T08:48:57.208Z,22.64
2022-08-07T08:50:04.523Z,22.71
2022-08-07T08:51:03.416Z,22.74
2022-08-07T08:52:14.121Z,22.79
2022-08-07T08:53:04.006Z,22.84
2022-08-07T08:54:05.710Z,22.88
2022-08-07T08:55:07.943Z,22.93
2022-08-07T08:56:09.242Z,22.97
2022-08-07T08:57:10.910Z,22.99
2022-08-07T08:58:13.160Z,23.01
2022-08-07T08:59:16.377Z,22.97
2022-08-07T09:00:16.099Z,23.02
2022-08-07T09:01:18.590Z,23.05
2022-08-07T09:02:34.758Z,23.06
2022-08-07T09:03:21.361Z,23.08
2022-08-07T09:04:26.177Z,23.11
2022-08-07T09:05:32.081Z,23.16
2022-08-07T09:06:26.661Z,23.21
2022-08-07T09:07:28.767Z,23.25
2022-08-07T09:08:30.141Z,23.28
2022-08-07T09:09:33.247Z,23.29
2022-08-07T09:10:33.441Z,23.33
2022-08-07T09:11:50.469Z,23.35
2022-08-07T09:12:36.914Z,23.39
2022-08-07T09:13:38.775Z,23.4
2022-08-07T09:14:40.459Z,23.43
2022-08-07T09:16:20.301Z,23.46
2022-08-07T09:16:44.019Z,23.47
2022-08-07T09:17:59.011Z,23.52
2022-08-07T09:18:53.350Z,23.52
2022-08-07T09:19:52.763Z,23.53
2022-08-07T09:20:58.289Z,23.57
2022-08-07T09:22:22.409Z,23.59
2022-08-07T09:24:31.402Z,23.59
2022-08-07T09:24:31.771Z,23.63
2022-08-07T09:25:01.659Z,23.6
2022-08-07T09:25:59.523Z,23.66
2022-08-07T09:27:04.579Z,23.69
2022-08-07T09:28:03.495Z,23.73
2022-08-07T09:30:06.062Z,23.75
2022-08-07T09:30:08.493Z,23.76
2022-08-07T09:31:08.583Z,23.77
2022-08-07T09:32:17.145Z,23.79
2022-08-07T09:33:16.538Z,23.83
2022-08-07T09:34:13.349Z,23.86
2022-08-07T09:36:04.464Z,23.89
2022-08-07T09:36:16.802Z,23.86
2022-08-07T09:37:18.673Z,23.91
2022-08-07T09:38:20.270Z,23.94
2022-08-07T09:39:55.327Z,23.96
2022-08-07T09:40:23.892Z,23.98
2022-08-07T09:41:25.610Z,24.03
2022-08-07T09:42:31.578Z,24.06
2022-08-07T09:44:05.248Z,24.1
2022-08-07T09:44:58.460Z,24.15
2022-08-07T09:47:25.464Z,24.23
2022-08-07T09:47:51.623Z,24.27
2022-08-07T09:48:00.367Z,24.33
2022-08-07T09:48:56.046Z,24.35
2022-08-07T09:50:01.197Z,24.39
2022-08-07T09:50:41.091Z,24.39
2022-08-07T09:52:10.225Z,24.4
2022-08-07T09:52:44.710Z,24.46
2022-08-07T09:53:55.231Z,24.47
2022-08-07T09:54:48.040Z,24.42
2022-08-07T09:56:03.206Z,24.47
2022-08-07T09:56:51.561Z,24.43
2022-08-07T09:57:53.316Z,24.45
2022-08-07T09:58:55.096Z,24.46
2022-08-07T10:00:00.583Z,24.47
2022-08-07T10:00:58.602Z,24.5
2022-08-07T10:02:00.456Z,24.54
2022-08-07T10:03:07.792Z,24.54
2022-08-07T10:04:14.428Z,24.58
2022-08-07T10:05:12.566Z,24.6
2022-08-07T10:06:17.246Z,24.6
2022-08-07T10:07:24.202Z,24.63
2022-08-07T10:08:10.671Z,24.69
2022-08-07T10:09:15.210Z,24.7
2022-08-07T10:10:21.338Z,24.75
2022-08-07T10:11:59.169Z,24.76
2022-08-07T10:12:21.867Z,24.79
2022-08-07T10:13:29.764Z,24.78
2022-08-07T10:14:30.135Z,24.81
2022-08-07T10:15:22.971Z,24.87
2022-08-07T10:16:24.540Z,24.88
2022-08-07T10:17:28.918Z,24.86
2022-08-07T10:18:27.977Z,24.77
2022-08-07T10:19:30.159Z,24.82
2022-08-07T10:20:31.843Z,24.83
2022-08-07T10:22:14.559Z,24.87
2022-08-07T10:22:36.626Z,24.87
2022-08-07T10:24:04.906Z,24.88
2022-08-07T10:24:39.830Z,24.93
2022-08-07T10:25:43.104Z,24.93
2022-08-07T10:26:41.807Z,24.95
2022-08-07T10:27:46.350Z,24.99
2022-08-07T10:28:49.499Z,25.03
2022-08-07T10:29:51.426Z,25.08
2022-08-07T10:30:48.733Z,25.13
2022-08-07T10:31:50.732Z,25.16
2022-08-07T10:32:53.753Z,25.24
2022-08-07T10:34:06.718Z,25.27
2022-08-07T10:34:55.821Z,25.32
2022-08-07T10:36:10.893Z,25.3
2022-08-07T10:36:59.218Z,25.35
2022-08-07T10:38:21.244Z,25.33
2022-08-07T10:39:04.449Z,25.36
2022-08-07T10:40:05.983Z,25.35
2022-08-07T10:41:09.180Z,25.32
2022-08-07T10:42:09.255Z,25.36
2022-08-07T10:43:09.564Z,25.38
2022-08-07T10:44:11.436Z,25.42
2022-08-07T10:45:13.012Z,25.47
2022-08-07T10:46:14.763Z,25.51
2022-08-07T10:47:16.573Z,25.52
2022-08-07T10:48:18.238Z,25.49
2022-08-07T10:49:24.508Z,25.55
2022-08-07T10:50:25.993Z,25.54
2022-08-07T10:51:57.590Z,25.54
2022-08-07T10:52:31.902Z,25.48
2022-08-07T10:53:26.944Z,25.51
2022-08-07T10:54:28.644Z,25.54
2022-08-07T10:55:37.952Z,25.56
2022-08-07T10:56:32.101Z,25.58
2022-08-07T10:57:35.574Z,25.57
2022-08-07T10:58:40.393Z,25.62
2022-08-07T10:59:37.609Z,25.65
2022-08-07T11:00:43.348Z,25.68
2022-08-07T11:01:51.763Z,25.71
2022-08-07T11:02:42.568Z,25.73
2022-08-07T11:03:54.991Z,25.75
2022-08-07T11:04:46.339Z,25.8
2022-08-07T11:05:50.665Z,25.83
2022-08-07T11:06:49.607Z,25.89
2022-08-07T11:07:58.852Z,25.92
2022-08-07T11:08:52.994Z,25.96
2022-08-07T11:10:08.553Z,26.03
2022-08-07T11:10:59.813Z,26.11
2022-08-07T11:11:59.328Z,26.11
2022-08-07T11:13:02.212Z,26.08
2022-08-07T11:14:44.284Z,26.1
2022-08-07T11:15:03.800Z,26.11
2022-08-07T11:16:08.148Z,26.1
2022-08-07T11:17:07.381Z,25.96
2022-08-07T11:18:09.570Z,25.98
2022-08-07T11:19:10.320Z,25.93
2022-08-07T11:20:12.013Z,25.94
2022-08-07T11:21:14.074Z,25.94
2022-08-07T11:22:27.376Z,25.93
2022-08-07T11:23:26.219Z,25.87
2022-08-07T11:24:18.937Z,25.86
2022-08-07T11:25:20.977Z,25.83
2022-08-07T11:26:22.398Z,25.86
2022-08-07T11:28:00.844Z,25.84
2022-08-07T11:28:25.900Z,25.86
2022-08-07T11:29:43.575Z,25.82
2022-08-07T11:30:41.930Z,25.87
2022-08-07T11:31:33.402Z,25.88
2022-08-07T11:32:32.821Z,25.89
2022-08-07T11:33:54.245Z,25.9
2022-08-07T11:34:36.274Z,25.92
2022-08-07T11:36:00.188Z,25.95
2022-08-07T11:36:39.744Z,25.96
2022-08-07T11:37:58.011Z,26
2022-08-07T11:38:43.236Z,25.98
2022-08-07T11:40:01.717Z,26.03
2022-08-07T11:40:49.523Z,26.05
2022-08-07T11:42:00.251Z,26.07
2022-08-07T11:42:50.558Z,26.09
2022-08-07T11:44:10.646Z,26.12
2022-08-07T11:44:57.544Z,26.12
2022-08-07T11:45:55.496Z,26.14
2022-08-07T11:46:57.288Z,26.16
2022-08-07T11:48:02.643Z,26.19
2022-08-07T11:49:50.716Z,26.2
2022-08-07T11:50:31.275Z,26.25
2022-08-07T11:51:09.739Z,26.28
2022-08-07T11:52:05.830Z,26.3
2022-08-07T11:53:07.505Z,26.34
2022-08-07T11:54:10.216Z,26.38
2022-08-07T11:55:19.085Z,26.4
2022-08-07T11:56:26.918Z,26.4
2022-08-07T11:57:14.570Z,26.45
2022-08-07T11:58:16.632Z,26.47
2022-08-07T12:00:07.642Z,26.49
2022-08-07T12:00:20.236Z,26.51
2022-08-07T12:01:22.064Z,26.51
2022-08-07T12:02:30.398Z,26.53
2022-08-07T12:03:41.921Z,26.52
2022-08-07T12:04:26.900Z,26.55
2022-08-07T12:05:47.397Z,26.57
2022-08-07T12:06:38.981Z,26.5
2022-08-07T12:07:39.206Z,26.47
2022-08-07T12:08:35.026Z,26.51
2022-08-07T12:09:35.316Z,26.47
2022-08-07T12:10:37.129Z,26.5
2022-08-07T12:11:43.491Z,26.52
2022-08-07T12:12:40.448Z,26.54
2022-08-07T12:13:45.015Z,26.56
2022-08-07T12:14:43.918Z,26.59
2022-08-07T12:16:05.824Z,26.58
2022-08-07T12:16:47.384Z,26.46
2022-08-07T12:17:59.672Z,26.51
2022-08-07T12:18:50.875Z,26.48
2022-08-07T12:20:02.634Z,26.45
2022-08-07T12:20:54.456Z,26.43
2022-08-07T12:22:39.310Z,26.4
2022-08-07T12:22:58.433Z,26.38
2022-08-07T12:24:07.102Z,26.37
2022-08-07T12:25:02.534Z,26.35
2022-08-07T12:26:23.127Z,26.35
2022-08-07T12:27:04.804Z,26.32
2022-08-07T12:28:09.286Z,26.35
2022-08-07T12:29:08.231Z,26.38
2022-08-07T12:30:09.948Z,26.44
2022-08-07T12:31:11.682Z,26.46
2022-08-07T12:32:13.656Z,26.5
2022-08-07T12:33:23.102Z,26.53
2022-08-07T12:34:16.914Z,26.56
2022-08-07T12:35:19.185Z,26.58
2022-08-07T12:36:20.346Z,26.55
2022-08-07T12:37:23.282Z,26.59
2022-08-07T12:38:38.637Z,26.64
2022-08-07T12:39:43.579Z,26.63
2022-08-07T12:40:47.861Z,26.62
2022-08-07T12:41:29.090Z,26.67
2022-08-07T12:42:32.051Z,26.67
2022-08-07T12:44:02.255Z,26.65
2022-08-07T12:44:34.435Z,26.56
2022-08-07T12:45:35.970Z,26.59
2022-08-07T12:46:37.696Z,26.58
2022-08-07T12:47:40.523Z,26.52
2022-08-07T12:48:52.903Z,26.5
2022-08-07T12:49:50.954Z,26.5
2022-08-07T12:50:49.314Z,26.45
2022-08-07T12:52:11.968Z,26.46
2022-08-07T12:52:48.132Z,26.43
2022-08-07T12:54:24.270Z,26.41
2022-08-07T12:54:54.488Z,26.35
2022-08-07T12:56:02.857Z,26.35
2022-08-07T12:56:55.338Z,26.36
2022-08-07T12:58:00.865Z,26.37
2022-08-07T12:58:59.588Z,26.37
2022-08-07T13:00:00.396Z,26.38
2022-08-07T13:01:02.368Z,26.41
2022-08-07T13:02:03.729Z,26.46
2022-08-07T13:03:06.739Z,26.5
2022-08-07T13:04:09.827Z,26.57
2022-08-07T13:05:14.859Z,26.64
2022-08-07T13:06:21.521Z,26.68
2022-08-07T13:08:11.541Z,26.73
2022-08-07T13:08:18.789Z,26.78
2022-08-07T13:10:20.426Z,26.82
2022-08-07T13:10:28.454Z,26.87
2022-08-07T13:11:19.340Z,26.85
2022-08-07T13:12:21.187Z,26.85
2022-08-07T13:13:46.906Z,26.88
2022-08-07T13:14:24.532Z,26.78
2022-08-07T13:15:31.687Z,26.77
2022-08-07T13:16:28.058Z,26.76
2022-08-07T13:17:39.982Z,26.73